Terminal Aerodrome Forecast
Issued by NWS Blacksburg, VA

Current Version | Previous Version | Graphics & Text | Print | Product List | Glossary On
Versions: 1 2 3 4 5 6 7 8 9 10 11 12 13 14 15 16 17 18 19 20 21 22 23 24 25 26 27 28 29 30 31 32 33 34 35 36 37 38 39 40 41 42
300
FTUS41 KRNK 190417 AAB
TAFBLF
TAF AMD
KBLF 190417Z 1904/1924 26010G20KT P6SM -SHRA OVC025
      TEMPO 1904/1905 26015G30KT 4SM -SHRA OVC015
     FM190600 27016G26KT P6SM OVC015
      TEMPO 1906/1907 2SM -SHRA OVC007=

USA.gov is the U.S. government's official web portal to all federal, state and local government web resources and services.